createdAt,value
2023-05-22T00:00:22.449Z,98306.59
2023-05-22T00:02:24.350Z,98310.84
2023-05-22T00:04:29.975Z,98296.47
2023-05-22T00:06:34.114Z,98300.41
2023-05-22T00:08:35.967Z,98297.16
2023-05-22T00:10:38.923Z,98289.97
2023-05-22T00:12:43.752Z,98299.44
2023-05-22T00:14:45.361Z,98292.25
2023-05-22T00:16:49.205Z,98290.63
2023-05-22T00:18:50.855Z,98287.38
2023-05-22T00:20:53.509Z,98293.25
2023-05-22T00:22:56.974Z,98281.66
2023-05-22T00:24:58.647Z,98289.19
2023-05-22T00:27:00.489Z,98285.59
2023-05-22T00:29:02.288Z,98283.47
2023-05-22T00:31:04.193Z,98281.00
2023-05-22T00:33:06.285Z,98281.00
2023-05-22T00:35:08.865Z,98276.63
2023-05-22T00:37:10.921Z,98274.16
2023-05-22T00:39:12.688Z,98282.81
2023-05-22T00:41:14.622Z,98270.88
2023-05-22T00:43:17.625Z,98276.78
2023-05-22T00:45:19.295Z,98274.31
2023-05-22T00:47:23.873Z,98269.94
2023-05-22T00:49:25.954Z,98279.38
2023-05-22T00:51:27.907Z,98275.00
2023-05-22T00:53:31.078Z,98276.94
2023-05-22T00:55:33.451Z,98264.56
2023-05-22T00:57:36.453Z,98271.25
2023-05-22T00:59:38.121Z,98264.88
2023-05-22T01:01:42.782Z,98268.81
2023-05-22T01:03:45.863Z,98281.03
2023-05-22T01:05:48.151Z,98269.47
2023-05-22T01:07:49.649Z,98274.19
2023-05-22T01:09:52.622Z,98271.75
2023-05-22T01:12:10.746Z,98274.06
2023-05-22T01:14:40.138Z,98279.09
2023-05-22T01:16:59.772Z,98270.63
2023-05-22T01:19:26.179Z,98272.09
2023-05-22T01:21:46.241Z,98270.81
2023-05-22T01:24:16.121Z,98275.06
2023-05-22T01:26:45.932Z,98274.06
2023-05-22T01:29:15.048Z,98276.34
2023-05-22T01:31:19.144Z,98273.09
2023-05-22T01:33:26.100Z,98277.34
2023-05-22T01:35:28.629Z,98272.94
2023-05-22T01:37:31.589Z,98281.94
2023-05-22T01:39:36.440Z,98277.84
2023-05-22T01:41:40.553Z,98272.63
2023-05-22T01:43:42.428Z,98272.97
2023-05-22T01:45:43.951Z,98269.19
2023-05-22T01:47:45.813Z,98274.25
2023-05-22T01:49:48.947Z,98267.41
2023-05-22T01:51:57.548Z,98276.91
2023-05-22T01:53:58.986Z,98267.28
2023-05-22T01:56:07.799Z,98262.38
2023-05-22T01:58:15.029Z,98276.53
2023-05-22T02:00:21.483Z,98273.63
2023-05-22T02:02:27.467Z,98276.22
2023-05-22T02:04:34.141Z,98277.69
2023-05-22T02:06:37.074Z,98273.59
2023-05-22T02:08:41.007Z,98269.50
2023-05-22T02:10:56.763Z,98264.13
2023-05-22T02:12:58.596Z,98264.78
2023-05-22T02:15:01.932Z,98269.81
2023-05-22T02:17:05.479Z,98271.00
2023-05-22T02:19:08.012Z,98269.69
2023-05-22T02:21:10.463Z,98264.78
2023-05-22T02:23:12.161Z,98270.97
2023-05-22T02:25:15.225Z,98274.38
2023-05-22T02:27:17.443Z,98266.72
2023-05-22T02:29:19.340Z,98268.19
2023-05-22T02:31:21.010Z,98266.88
2023-05-22T02:33:22.620Z,98267.22
2023-05-22T02:35:25.122Z,98262.31
2023-05-22T02:37:27.242Z,98262.13
2023-05-22T02:39:30.258Z,98260.81
2023-05-22T02:41:31.990Z,98266.69
2023-05-22T02:43:35.940Z,98262.63
2023-05-22T02:45:40.632Z,98270.44
2023-05-22T02:47:42.282Z,98261.66
2023-05-22T02:49:45.148Z,98265.06
2023-05-22T02:51:48.017Z,98272.88
2023-05-22T02:53:51.978Z,98265.69
2023-05-22T02:55:53.595Z,98253.66
2023-05-22T02:58:00.529Z,98271.38
2023-05-22T03:00:06.284Z,98257.06
2023-05-22T03:02:08.144Z,98264.03
2023-05-22T03:04:10.229Z,98273.47
2023-05-22T03:06:12.228Z,98265.81
2023-05-22T03:08:15.902Z,98277.22
2023-05-22T03:10:17.547Z,98271.50
2023-05-22T03:12:19.527Z,98276.53
2023-05-22T03:14:21.551Z,98275.19
2023-05-22T03:16:23.383Z,98277.81
2023-05-22T03:18:27.477Z,98278.09
2023-05-22T03:20:33.994Z,98281.22
2023-05-22T03:22:36.374Z,98277.13
2023-05-22T03:24:38.181Z,98277.44
2023-05-22T03:26:39.753Z,98285.56
2023-05-22T03:28:44.347Z,98279.56
2023-05-22T03:30:46.674Z,98295.63
2023-05-22T03:33:11.735Z,98288.50
2023-05-22T03:35:19.560Z,98292.72
2023-05-22T03:37:21.287Z,98281.94
2023-05-22T03:39:23.746Z,98286.97
2023-05-22T03:41:33.509Z,98284.84
2023-05-22T03:43:35.389Z,98283.22
2023-05-22T03:45:37.008Z,98289.06
2023-05-22T03:47:39.030Z,98289.41
2023-05-22T03:49:40.642Z,98286.13
2023-05-22T03:51:42.337Z,98285.31
2023-05-22T03:53:48.290Z,98288.41
2023-05-22T03:55:50.144Z,98290.66
2023-05-22T03:57:51.674Z,98294.56
2023-05-22T03:59:53.299Z,98292.09
2023-05-22T04:01:58.128Z,98293.25
2023-05-22T04:03:59.784Z,98292.75
2023-05-22T04:06:01.573Z,98293.88
2023-05-22T04:08:03.239Z,98294.22
2023-05-22T04:10:05.370Z,98300.88
2023-05-22T04:12:08.033Z,98291.25
2023-05-22T04:14:10.199Z,98295.97
2023-05-22T04:16:12.171Z,98301.81
2023-05-22T04:18:14.485Z,98293.81
2023-05-22T04:20:16.272Z,98296.09
2023-05-22T04:22:20.841Z,98301.97
2023-05-22T04:24:23.244Z,98298.38
2023-05-22T04:26:26.031Z,98302.25
2023-05-22T04:28:27.823Z,98314.97
2023-05-22T04:30:37.689Z,98309.75
2023-05-22T04:32:40.989Z,98311.69
2023-05-22T04:34:42.956Z,98304.53
2023-05-22T04:36:48.029Z,98313.66
2023-05-22T04:38:50.288Z,98311.69
2023-05-22T04:40:53.063Z,98307.28
2023-05-22T04:42:54.808Z,98311.69
2023-05-22T04:44:58.751Z,98309.22
2023-05-22T04:47:06.835Z,98312.53
2023-05-22T04:49:09.367Z,98311.69
2023-05-22T04:51:11.025Z,98315.28
2023-05-22T04:53:12.790Z,98317.72
2023-05-22T04:55:17.260Z,98320.50
2023-05-22T04:57:19.438Z,98309.09
2023-05-22T04:59:23.391Z,98310.75
2023-05-22T05:01:27.744Z,98308.47
2023-05-22T05:03:29.884Z,98312.88
2023-05-22T05:05:36.520Z,98311.75
2023-05-22T05:07:43.529Z,98311.44
2023-05-22T05:09:45.377Z,98318.28
2023-05-22T05:11:47.202Z,98313.25
2023-05-22T05:13:48.868Z,98313.75
2023-05-22T05:15:50.618Z,98322.22
2023-05-22T05:17:52.320Z,98309.72
2023-05-22T05:19:54.011Z,98309.88
2023-05-22T05:21:55.678Z,98316.44
2023-05-22T05:23:57.702Z,98313.81
2023-05-22T05:26:01.236Z,98306.22
2023-05-22T05:28:03.507Z,98313.56
2023-05-22T05:30:05.848Z,98316.50
2023-05-22T05:32:19.013Z,98315.25
2023-05-22T05:34:41.448Z,98317.06
2023-05-22T05:36:57.208Z,98323.47
2023-05-22T05:38:59.114Z,98324.00
2023-05-22T05:41:01.512Z,98312.13
2023-05-22T05:43:06.301Z,98311.84
2023-05-22T05:45:11.236Z,98312.66
2023-05-22T05:47:17.574Z,98314.31
2023-05-22T05:49:20.118Z,98313.19
2023-05-22T05:51:23.902Z,98314.00
2023-05-22T05:53:25.650Z,98316.50
2023-05-22T05:55:34.454Z,98305.56
2023-05-22T05:57:39.485Z,98309.66
2023-05-22T05:59:43.858Z,98310.16
2023-05-22T06:02:04.390Z,98305.09
2023-05-22T06:04:09.175Z,98314.84
2023-05-22T06:06:14.071Z,98315.63
2023-05-22T06:08:52.482Z,98306.34
2023-05-22T06:11:01.427Z,98308.09
2023-05-22T06:13:09.950Z,98306.25
2023-05-22T06:15:13.681Z,98306.38
2023-05-22T06:17:16.214Z,98305.34
2023-05-22T06:19:22.427Z,98303.94
2023-05-22T06:21:24.734Z,98302.09
2023-05-22T06:23:26.729Z,98295.97
2023-05-22T06:25:30.372Z,98292.59
2023-05-22T06:27:33.102Z,98300.66
2023-05-22T06:29:35.676Z,98295.63
2023-05-22T06:31:39.217Z,98297.03
2023-05-22T06:33:43.384Z,98294.75
2023-05-22T06:35:53.975Z,98294.13
2023-05-22T06:37:57.921Z,98297.41
2023-05-22T06:40:01.710Z,98293.16
2023-05-22T06:42:13.448Z,98289.25
2023-05-22T06:44:33.912Z,98293.81
2023-05-22T06:46:39.410Z,98293.47
2023-05-22T06:48:41.941Z,98292.78
2023-05-22T06:50:48.330Z,98286.84
2023-05-22T06:52:50.223Z,98291.28
2023-05-22T06:54:54.302Z,98295.31
2023-05-22T06:56:57.688Z,98290.91
2023-05-22T06:59:01.975Z,98288.44
2023-05-22T07:01:23.329Z,98293.97
2023-05-22T07:03:36.684Z,98295.56
2023-05-22T07:05:57.844Z,98298.66
2023-05-22T07:07:59.752Z,98302.94
2023-05-22T07:10:01.534Z,98295.22
2023-05-22T07:12:03.524Z,98297.50
2023-05-22T07:14:08.810Z,98299.41
2023-05-22T07:16:12.805Z,98301.69
2023-05-22T07:18:15.384Z,98303.16
2023-05-22T07:20:18.039Z,98300.66
2023-05-22T07:22:28.585Z,98300.91
2023-05-22T07:24:31.842Z,98298.75
2023-05-22T07:26:36.656Z,98295.84
2023-05-22T07:28:42.991Z,98296.94
2023-05-22T07:30:48.807Z,98294.06
2023-05-22T07:32:50.749Z,98290.31
2023-05-22T07:34:53.922Z,98295.00
2023-05-22T07:36:55.507Z,98294.88
2023-05-22T07:38:57.906Z,98291.88
2023-05-22T07:41:04.814Z,98293.72
2023-05-22T07:43:12.744Z,98293.59
2023-05-22T07:45:15.112Z,98299.03
2023-05-22T07:47:17.083Z,98289.69
2023-05-22T07:49:20.353Z,98294.69
2023-05-22T07:51:22.246Z,98290.91
2023-05-22T07:53:26.178Z,98297.56
2023-05-22T07:55:31.264Z,98298.19
2023-05-22T07:57:36.241Z,98299.56
2023-05-22T07:59:46.084Z,98298.19
2023-05-22T08:01:47.622Z,98298.00
2023-05-22T08:03:49.784Z,98297.03
2023-05-22T08:05:51.788Z,98302.78
2023-05-22T08:07:53.341Z,98300.16
2023-05-22T08:09:54.917Z,98291.91
2023-05-22T08:11:56.652Z,98291.25
2023-05-22T08:13:58.255Z,98299.81
2023-05-22T08:16:01.367Z,98294.41
2023-05-22T08:18:03.487Z,98294.09
2023-05-22T08:20:06.654Z,98295.06
2023-05-22T08:22:08.602Z,98292.38
2023-05-22T08:24:10.463Z,98294.13
2023-05-22T08:26:12.098Z,98281.38
2023-05-22T08:28:13.679Z,98294.78
2023-05-22T08:30:15.299Z,98291.28
2023-05-22T08:32:17.109Z,98291.03
2023-05-22T08:34:18.874Z,98285.06
2023-05-22T08:36:23.421Z,98288.38
2023-05-22T08:38:24.995Z,98289.31
2023-05-22T08:40:37.731Z,98283.38
2023-05-22T08:42:42.661Z,98278.63
2023-05-22T08:44:44.423Z,98278.28
2023-05-22T08:46:47.370Z,98278.75
2023-05-22T08:48:49.381Z,98284.47
2023-05-22T08:51:02.775Z,98282.16
2023-05-22T08:53:08.049Z,98276.97
2023-05-22T08:55:10.459Z,98273.81
2023-05-22T08:57:12.495Z,98273.44
2023-05-22T08:59:14.146Z,98273.91
2023-05-22T09:01:16.897Z,98269.94
2023-05-22T09:03:21.643Z,98261.16
2023-05-22T09:05:26.880Z,98260.41
2023-05-22T09:07:29.990Z,98259.63
2023-05-22T09:09:36.706Z,98261.66
2023-05-22T09:11:38.714Z,98259.66
2023-05-22T09:13:41.386Z,98255.72
2023-05-22T09:15:43.543Z,98258.56
2023-05-22T09:17:45.887Z,98251.69
2023-05-22T09:19:47.703Z,98254.94
2023-05-22T09:21:49.267Z,98244.84
2023-05-22T09:23:51.101Z,98250.50
2023-05-22T09:25:56.115Z,98252.16
2023-05-22T09:27:57.636Z,98252.94
2023-05-22T09:29:59.492Z,98252.53
2023-05-22T09:32:01.261Z,98248.91
2023-05-22T09:34:04.607Z,98246.06
2023-05-22T09:36:09.038Z,98249.66
2023-05-22T09:38:12.948Z,98248.47
2023-05-22T09:40:14.578Z,98242.38
2023-05-22T09:42:17.592Z,98255.25
2023-05-22T09:44:19.240Z,98249.16
2023-05-22T09:46:20.917Z,98242.25
2023-05-22T09:48:22.574Z,98240.66
2023-05-22T09:50:24.053Z,98237.41
2023-05-22T09:52:33.498Z,98238.16
2023-05-22T09:54:37.212Z,98230.44
2023-05-22T09:56:40.482Z,98239.69
2023-05-22T09:58:43.352Z,98234.38
2023-05-22T10:00:46.141Z,98223.00
2023-05-22T10:02:52.164Z,98229.06
2023-05-22T10:04:54.737Z,98230.22
2023-05-22T10:07:04.102Z,98228.56
2023-05-22T10:09:09.364Z,98226.47
2023-05-22T10:11:14.771Z,98226.84
2023-05-22T10:13:17.065Z,98227.59
2023-05-22T10:15:19.219Z,98214.63
2023-05-22T10:17:22.153Z,98213.75
2023-05-22T10:19:27.403Z,98215.31
2023-05-22T10:21:30.210Z,98221.34
2023-05-22T10:23:32.057Z,98216.81
2023-05-22T10:25:37.647Z,98209.47
2023-05-22T10:27:40.803Z,98217.16
2023-05-22T10:29:55.707Z,98209.00
2023-05-22T10:32:19.316Z,98209.75
2023-05-22T10:34:32.760Z,98203.22
2023-05-22T10:36:36.968Z,98209.66
2023-05-22T10:38:57.633Z,98206.75
2023-05-22T10:40:59.914Z,98206.66
2023-05-22T10:43:03.143Z,98215.88
2023-05-22T10:45:07.689Z,98212.59
2023-05-22T10:47:11.411Z,98208.06
2023-05-22T10:49:21.276Z,98207.22
2023-05-22T10:51:23.512Z,98205.13
2023-05-22T10:53:31.287Z,98205.09
2023-05-22T10:55:32.815Z,98200.63
2023-05-22T10:57:36.898Z,98206.66
2023-05-22T10:59:41.535Z,98203.78
2023-05-22T11:01:43.192Z,98192.84
2023-05-22T11:04:00.571Z,98196.78
2023-05-22T11:06:02.332Z,98194.28
2023-05-22T11:08:11.765Z,98192.59
2023-05-22T11:10:13.475Z,98189.28
2023-05-22T11:12:25.755Z,98193.22
2023-05-22T11:14:27.481Z,98191.16
2023-05-22T11:16:38.275Z,98189.88
2023-05-22T11:18:40.002Z,98189.38
2023-05-22T11:20:42.381Z,98196.22
2023-05-22T11:22:50.998Z,98186.47
2023-05-22T11:24:58.633Z,98189.63
2023-05-22T11:27:06.791Z,98193.22
2023-05-22T11:29:08.869Z,98189.50
2023-05-22T11:31:10.778Z,98185.41
2023-05-22T11:33:13.273Z,98192.25
2023-05-22T11:35:19.419Z,98184.84
2023-05-22T11:37:21.034Z,98185.59
2023-05-22T11:39:23.384Z,98177.81
2023-05-22T11:41:25.248Z,98182.19
2023-05-22T11:43:33.017Z,98174.03
2023-05-22T11:45:37.540Z,98176.41
2023-05-22T11:47:43.518Z,98172.66
2023-05-22T11:49:45.529Z,98171.78
2023-05-22T11:51:50.693Z,98168.81
2023-05-22T11:53:53.671Z,98171.16
2023-05-22T11:55:55.689Z,98166.19
2023-05-22T11:57:57.968Z,98161.69
2023-05-22T11:59:59.742Z,98163.72
2023-05-22T12:02:01.600Z,98159.66
2023-05-22T12:04:05.004Z,98157.63
2023-05-22T12:06:08.618Z,98149.88
2023-05-22T12:08:10.287Z,98153.09
2023-05-22T12:10:14.376Z,98155.84
2023-05-22T12:12:16.330Z,98153.41
2023-05-22T12:14:19.168Z,98147.63
2023-05-22T12:16:25.082Z,98148.44
2023-05-22T12:18:27.538Z,98147.56
2023-05-22T12:20:31.762Z,98144.66
2023-05-22T12:22:33.600Z,98144.59
2023-05-22T12:24:53.107Z,98153.13
2023-05-22T12:26:56.167Z,98143.28
2023-05-22T12:29:01.133Z,98146.13
2023-05-22T12:31:02.677Z,98148.97
2023-05-22T12:33:04.261Z,98144.53
2023-05-22T12:35:06.308Z,98142.13
2023-05-22T12:37:18.508Z,98132.78
2023-05-22T12:39:20.351Z,98138.06
2023-05-22T12:41:21.882Z,98135.63
2023-05-22T12:43:25.097Z,98142.56
2023-05-22T12:45:26.778Z,98141.75
2023-05-22T12:47:29.993Z,98140.94
2023-05-22T12:49:31.506Z,98137.75
2023-05-22T12:51:33.226Z,98142.63
2023-05-22T12:53:34.905Z,98132.88
2023-05-22T12:55:39.315Z,98128.41
2023-05-22T12:57:40.956Z,98132.53
2023-05-22T12:59:43.625Z,98136.19
2023-05-22T13:01:45.206Z,98135.38
2023-05-22T13:03:46.944Z,98125.69
2023-05-22T13:05:48.612Z,98122.91
2023-05-22T13:07:50.315Z,98123.41
2023-05-22T13:09:51.981Z,98112.56
2023-05-22T13:11:53.922Z,98124.00
2023-05-22T13:13:55.604Z,98110.66
2023-05-22T13:16:00.450Z,98115.63
2023-05-22T13:18:02.161Z,98123.00
2023-05-22T13:20:04.451Z,98110.47
2023-05-22T13:22:07.520Z,98111.31
2023-05-22T13:24:09.270Z,98112.53
2023-05-22T13:26:16.770Z,98112.63
2023-05-22T13:28:18.349Z,98105.69
2023-05-22T13:30:20.326Z,98107.38
2023-05-22T13:32:22.543Z,98107.44
2023-05-22T13:34:24.504Z,98098.59
2023-05-22T13:36:26.364Z,98113.28
2023-05-22T13:38:28.006Z,98106.94
2023-05-22T13:40:29.610Z,98112.75
2023-05-22T13:42:39.981Z,98110.47
2023-05-22T13:44:41.680Z,98100.09
2023-05-22T13:46:43.276Z,98110.72
2023-05-22T13:48:44.840Z,98108.00
2023-05-22T13:50:49.167Z,98105.28
2023-05-22T13:52:50.940Z,98109.41
2023-05-22T13:54:52.477Z,98107.00
2023-05-22T13:56:54.347Z,98098.13
2023-05-22T13:58:56.063Z,98090.47
2023-05-22T14:00:57.599Z,98094.97
2023-05-22T14:03:01.609Z,98087.25
2023-05-22T14:05:03.563Z,98100.66
2023-05-22T14:07:05.328Z,98080.41
2023-05-22T14:09:08.844Z,98096.19
2023-05-22T14:11:10.753Z,98081.63
2023-05-22T14:13:12.301Z,98082.44
2023-05-22T14:15:16.014Z,98084.47
2023-05-22T14:17:17.540Z,98080.03
2023-05-22T14:19:20.625Z,98087.75
2023-05-22T14:21:22.304Z,98087.34
2023-05-22T14:23:23.888Z,98076.00
2023-05-22T14:25:26.425Z,98075.63
2023-05-22T14:27:29.274Z,98077.75
2023-05-22T14:29:31.762Z,98081.44
2023-05-22T14:31:44.311Z,98080.25
2023-05-22T14:33:46.000Z,98081.06
2023-05-22T14:35:48.582Z,98077.06
2023-05-22T14:37:50.627Z,98072.69
2023-05-22T14:39:52.140Z,98077.97
2023-05-22T14:41:58.085Z,98074.38
2023-05-22T14:43:59.779Z,98077.28
2023-05-22T14:46:05.540Z,98072.47
2023-05-22T14:48:17.111Z,98072.09
2023-05-22T14:50:20.636Z,98071.31
2023-05-22T14:52:22.850Z,98067.38
2023-05-22T14:54:27.155Z,98071.06
2023-05-22T14:56:28.731Z,98067.47
2023-05-22T14:58:30.313Z,98067.50
2023-05-22T15:00:32.130Z,98060.63
2023-05-22T15:02:33.824Z,98071.22
2023-05-22T15:04:35.579Z,98055.88
2023-05-22T15:06:37.871Z,98057.53
2023-05-22T15:08:39.653Z,98053.53
2023-05-22T15:10:41.485Z,98053.56
2023-05-22T15:12:43.478Z,98050.75
2023-05-22T15:14:44.991Z,98047.19
2023-05-22T15:16:46.985Z,98043.16
2023-05-22T15:18:48.799Z,98037.53
2023-05-22T15:20:50.665Z,98042.00
2023-05-22T15:22:52.284Z,98036.81
2023-05-22T15:25:05.517Z,98038.09
2023-05-22T15:27:07.775Z,98034.50
2023-05-22T15:29:10.988Z,98042.59
2023-05-22T15:31:13.387Z,98026.03
2023-05-22T15:33:15.476Z,98022.47
2023-05-22T15:35:17.353Z,98027.78
2023-05-22T15:37:19.051Z,98016.53
2023-05-22T15:39:20.635Z,98014.94
2023-05-22T15:41:22.204Z,98013.75
2023-05-22T15:43:25.977Z,98012.19
2023-05-22T15:45:27.805Z,98013.03
2023-05-22T15:47:29.993Z,98013.09
2023-05-22T15:49:31.713Z,98013.09
2023-05-22T15:51:33.406Z,98015.56
2023-05-22T15:53:35.265Z,98014.38
2023-05-22T15:55:36.900Z,98021.31
2023-05-22T15:57:44.686Z,98015.63
2023-05-22T15:59:50.751Z,98016.47
2023-05-22T16:01:52.388Z,98018.53
2023-05-22T16:03:53.976Z,98020.63
2023-05-22T16:05:57.266Z,98023.47
2023-05-22T16:07:58.781Z,98018.25
2023-05-22T16:10:01.038Z,98027.56
2023-05-22T16:12:03.948Z,98021.16
2023-05-22T16:14:05.989Z,98016.75
2023-05-22T16:16:08.100Z,98032.13
2023-05-22T16:18:13.746Z,98029.72
2023-05-22T16:20:15.532Z,98029.75
2023-05-22T16:22:17.627Z,98021.31
2023-05-22T16:24:19.337Z,98020.91
2023-05-22T16:26:21.802Z,98025.00
2023-05-22T16:28:23.509Z,98022.56
2023-05-22T16:30:25.169Z,98028.28
2023-05-22T16:32:26.699Z,98017.78
2023-05-22T16:34:29.642Z,98026.28
2023-05-22T16:36:31.668Z,98019.44
2023-05-22T16:38:33.425Z,98021.88
2023-05-22T16:40:34.948Z,98020.31
2023-05-22T16:42:38.338Z,98019.50
2023-05-22T16:44:39.966Z,98012.28
2023-05-22T16:46:41.482Z,98017.97
2023-05-22T16:48:43.191Z,98015.53
2023-05-22T16:50:48.241Z,98014.78
2023-05-22T16:52:49.784Z,98025.28
2023-05-22T16:54:51.909Z,98023.66
2023-05-22T16:56:53.628Z,98025.72
2023-05-22T16:58:55.507Z,98028.16
2023-05-22T17:00:57.570Z,98031.78
2023-05-22T17:02:59.314Z,98032.59
2023-05-22T17:05:01.303Z,98022.13
2023-05-22T17:07:04.182Z,98025.00
2023-05-22T17:09:09.968Z,98027.81
2023-05-22T17:11:11.528Z,98020.16
2023-05-22T17:13:20.701Z,98022.22
2023-05-22T17:15:22.285Z,98014.56
2023-05-22T17:17:24.149Z,98018.19
2023-05-22T17:19:26.464Z,98027.09
2023-05-22T17:21:28.829Z,98022.25
2023-05-22T17:23:30.417Z,98032.78
2023-05-22T17:25:41.824Z,98030.34
2023-05-22T17:27:43.970Z,98024.69
2023-05-22T17:29:45.518Z,98019.09
2023-05-22T17:31:47.690Z,98025.53
2023-05-22T17:33:49.425Z,98026.34
2023-05-22T17:35:51.416Z,98032.03
2023-05-22T17:37:52.960Z,98031.22
2023-05-22T17:39:54.448Z,98028.41
2023-05-22T17:42:07.521Z,98037.25
2023-05-22T17:44:11.826Z,98033.66
2023-05-22T17:46:13.520Z,98038.53
2023-05-22T17:48:23.411Z,98032.47
2023-05-22T17:50:25.450Z,98033.69
2023-05-22T17:52:27.033Z,98034.47
2023-05-22T17:54:35.802Z,98043.34
2023-05-22T17:56:38.770Z,98037.72
2023-05-22T17:58:40.665Z,98052.22
2023-05-22T18:00:43.218Z,98037.72
2023-05-22T18:02:44.922Z,98041.75
2023-05-22T18:04:48.864Z,98036.53
2023-05-22T18:06:50.361Z,98034.13
2023-05-22T18:08:51.966Z,98040.94
2023-05-22T18:10:55.724Z,98036.94
2023-05-22T18:12:57.675Z,98033.69
2023-05-22T18:14:59.752Z,98031.25
2023-05-22T18:17:01.290Z,98036.09
2023-05-22T18:19:03.165Z,98031.63
2023-05-22T18:21:04.971Z,98033.25
2023-05-22T18:23:06.560Z,98042.09
2023-05-22T18:25:09.047Z,98040.06
2023-05-22T18:27:10.703Z,98050.50
2023-05-22T18:29:15.499Z,98053.31
2023-05-22T18:31:20.273Z,98052.09
2023-05-22T18:33:24.793Z,98062.53
2023-05-22T18:35:26.510Z,98055.66
2023-05-22T18:37:28.366Z,98061.66
2023-05-22T18:39:32.952Z,98065.66
2023-05-22T18:41:36.423Z,98070.06
2023-05-22T18:43:42.139Z,98070.44
2023-05-22T18:45:43.932Z,98070.41
2023-05-22T18:47:45.958Z,98074.41
2023-05-22T18:49:47.573Z,98069.16
2023-05-22T18:51:49.141Z,98070.72
2023-05-22T18:53:51.778Z,98076.72
2023-05-22T18:55:54.192Z,98074.66
2023-05-22T18:57:56.084Z,98082.66
2023-05-22T18:59:57.889Z,98081.41
2023-05-22T19:02:00.495Z,98077.38
2023-05-22T19:04:02.057Z,98083.34
2023-05-22T19:06:04.284Z,98086.91
2023-05-22T19:08:06.117Z,98085.69
2023-05-22T19:10:11.669Z,98087.63
2023-05-22T19:12:13.238Z,98096.03
2023-05-22T19:14:14.903Z,98095.56
2023-05-22T19:16:19.747Z,98103.53
2023-05-22T19:18:21.328Z,98101.84
2023-05-22T19:20:23.691Z,98103.41
2023-05-22T19:22:25.345Z,98111.38
2023-05-22T19:24:28.315Z,98107.31
2023-05-22T19:26:29.951Z,98111.66
2023-05-22T19:28:34.125Z,98120.03
2023-05-22T19:30:35.941Z,98117.91
2023-05-22T19:32:37.859Z,98121.06
2023-05-22T19:34:39.422Z,98119.78
2023-05-22T19:36:43.773Z,98122.13
2023-05-22T19:38:45.416Z,98123.66
2023-05-22T19:40:47.065Z,98128.00
2023-05-22T19:42:48.782Z,98131.16
2023-05-22T19:44:50.500Z,98137.47
2023-05-22T19:46:52.194Z,98139.03
2023-05-22T19:48:56.677Z,98139.34
2023-05-22T19:50:58.275Z,98138.06
2023-05-22T19:53:03.178Z,98130.38
2023-05-22T19:55:05.259Z,98139.94
2023-05-22T19:57:16.212Z,98137.78
2023-05-22T19:59:17.716Z,98142.91
2023-05-22T20:01:19.352Z,98134.03
2023-05-22T20:03:24.524Z,98143.56
2023-05-22T20:05:29.641Z,98149.88
2023-05-22T20:07:31.212Z,98146.19
2023-05-22T20:09:32.784Z,98142.94
2023-05-22T20:11:34.400Z,98147.25
2023-05-22T20:13:39.028Z,98141.94
2023-05-22T20:15:41.236Z,98146.63
2023-05-22T20:17:47.708Z,98145.28
2023-05-22T20:19:49.550Z,98145.59
2023-05-22T20:21:58.332Z,98145.13
2023-05-22T20:23:59.985Z,98140.22
2023-05-22T20:26:01.764Z,98150.56
2023-05-22T20:28:04.761Z,98150.88
2023-05-22T20:30:11.517Z,98156.34
2023-05-22T20:32:13.143Z,98150.25
2023-05-22T20:34:14.889Z,98149.34
2023-05-22T20:36:16.926Z,98151.69
2023-05-22T20:38:18.997Z,98148.72
2023-05-22T20:40:20.684Z,98156.59
2023-05-22T20:42:22.917Z,98161.69
2023-05-22T20:44:24.896Z,98155.97
2023-05-22T20:46:26.698Z,98168.25
2023-05-22T20:48:28.681Z,98160.53
2023-05-22T20:50:30.311Z,98161.19
2023-05-22T20:52:31.880Z,98162.66
2023-05-22T20:54:36.506Z,98165.75
2023-05-22T20:56:38.512Z,98172.00
2023-05-22T20:58:44.445Z,98172.28
2023-05-22T21:00:49.472Z,98181.34
2023-05-22T21:02:54.909Z,98172.78
2023-05-22T21:04:58.039Z,98178.28
2023-05-22T21:06:59.614Z,98170.19
2023-05-22T21:09:01.672Z,98170.91
2023-05-22T21:11:03.451Z,98170.03
2023-05-22T21:13:05.080Z,98174.75
2023-05-22T21:15:07.448Z,98163.03
2023-05-22T21:17:08.957Z,98162.13
2023-05-22T21:19:10.490Z,98167.66
2023-05-22T21:21:14.443Z,98162.78
2023-05-22T21:23:16.126Z,98169.09
2023-05-22T21:25:17.894Z,98174.63
2023-05-22T21:27:19.504Z,98185.69
2023-05-22T21:29:21.127Z,98176.44
2023-05-22T21:31:23.126Z,98175.16
2023-05-22T21:33:25.655Z,98167.84
2023-05-22T21:35:27.575Z,98167.41
2023-05-22T21:37:29.102Z,98156.91
2023-05-22T21:39:30.777Z,98160.47
2023-05-22T21:41:32.522Z,98155.59
2023-05-22T21:43:36.512Z,98153.50
2023-05-22T21:45:38.924Z,98153.41
2023-05-22T21:47:40.735Z,98152.16
2023-05-22T21:49:42.314Z,98156.84
2023-05-22T21:51:44.052Z,98159.22
2023-05-22T21:53:46.612Z,98157.13
2023-05-22T21:55:50.859Z,98162.63
2023-05-22T21:57:52.435Z,98164.16
2023-05-22T21:59:54.834Z,98166.88
2023-05-22T22:01:56.398Z,98163.59
2023-05-22T22:03:58.098Z,98168.28
2023-05-22T22:05:59.766Z,98155.88
2023-05-22T22:08:01.260Z,98162.16
2023-05-22T22:10:03.018Z,98154.50
2023-05-22T22:12:05.077Z,98158.03
2023-05-22T22:14:07.265Z,98161.53
2023-05-22T22:16:08.882Z,98162.63
2023-05-22T22:18:14.827Z,98154.94
2023-05-22T22:20:17.408Z,98154.81
2023-05-22T22:22:22.562Z,98158.31
2023-05-22T22:24:24.151Z,98160.22
2023-05-22T22:26:27.050Z,98156.53
2023-05-22T22:28:31.297Z,98162.00
2023-05-22T22:30:32.941Z,98153.50
2023-05-22T22:32:35.672Z,98159.00
2023-05-22T22:34:37.589Z,98165.31
2023-05-22T22:36:40.324Z,98160.78
2023-05-22T22:38:41.849Z,98159.53
2023-05-22T22:40:52.734Z,98159.41
2023-05-22T22:42:54.441Z,98158.53
2023-05-22T22:44:56.194Z,98166.78
2023-05-22T22:46:57.751Z,98168.66
2023-05-22T22:49:01.884Z,98170.19
2023-05-22T22:51:07.274Z,98177.28
2023-05-22T22:53:09.017Z,98176.34
2023-05-22T22:55:11.143Z,98172.66
2023-05-22T22:57:12.796Z,98181.72
2023-05-22T22:59:14.358Z,98176.81
2023-05-22T23:01:15.988Z,98183.13
2023-05-22T23:03:17.945Z,98187.75
2023-05-22T23:05:25.751Z,98191.25
2023-05-22T23:07:28.078Z,98193.94
2023-05-22T23:09:29.620Z,98197.06
2023-05-22T23:11:37.196Z,98195.34
2023-05-22T23:13:41.082Z,98210.78
2023-05-22T23:15:43.102Z,98216.59
2023-05-22T23:17:45.001Z,98224.50
2023-05-22T23:19:46.910Z,98229.13
2023-05-22T23:21:52.139Z,98227.88
2023-05-22T23:23:54.342Z,98232.97
2023-05-22T23:25:58.141Z,98228.09
2023-05-22T23:28:00.497Z,98222.44
2023-05-22T23:30:04.439Z,98230.31
2023-05-22T23:32:06.896Z,98226.28
2023-05-22T23:34:08.377Z,98228.09
2023-05-22T23:36:09.932Z,98227.66
2023-05-22T23:38:14.501Z,98231.47
2023-05-22T23:40:18.989Z,98228.25
2023-05-22T23:42:20.602Z,98230.91
2023-05-22T23:44:22.285Z,98230.44
2023-05-22T23:46:24.409Z,98224.41
2023-05-22T23:48:29.444Z,98226.22
2023-05-22T23:50:33.774Z,98230.50
2023-05-22T23:52:35.623Z,98229.22
2023-05-22T23:54:37.188Z,98224.34
2023-05-22T23:56:39.203Z,98222.75
2023-05-22T23:58:40.809Z,98220.63
